sensor_id;sensor_type;location;lat;lon;timestamp;temperature;humidity
26575;DHT22;67165;50.256;10.978;2023-04-09T00:00:19;5.60;98.00
26575;DHT22;67165;50.256;10.978;2023-04-09T00:02:47;5.60;98.00
26575;DHT22;67165;50.256;10.978;2023-04-09T00:05:12;5.60;98.00
26575;DHT22;67165;50.256;10.978;2023-04-09T00:07:48;5.60;98.00
26575;DHT22;67165;50.256;10.978;2023-04-09T00:10:16;5.60;98.00
26575;DHT22;67165;50.256;10.978;2023-04-09T00:12:42;5.60;98.00
26575;DHT22;67165;50.256;10.978;2023-04-09T00:15:08;5.60;98.00
26575;DHT22;67165;50.256;10.978;2023-04-09T00:17:34;5.60;98.00
26575;DHT22;67165;50.256;10.978;2023-04-09T00:19:59;5.60;98.00
26575;DHT22;67165;50.256;10.978;2023-04-09T00:22:25;5.60;98.00
26575;DHT22;67165;50.256;10.978;2023-04-09T00:24:53;5.60;98.00
26575;DHT22;67165;50.256;10.978;2023-04-09T00:27:22;5.60;98.00
26575;DHT22;67165;50.256;10.978;2023-04-09T00:29:54;5.70;98.00
26575;DHT22;67165;50.256;10.978;2023-04-09T00:32:22;5.70;98.00
26575;DHT22;67165;50.256;10.978;2023-04-09T00:34:48;5.70;98.00
26575;DHT22;67165;50.256;10.978;2023-04-09T00:37:16;5.60;98.00
26575;DHT22;67165;50.256;10.978;2023-04-09T00:39:53;5.70;98.00
26575;DHT22;67165;50.256;10.978;2023-04-09T00:42:19;5.60;98.00
26575;DHT22;67165;50.256;10.978;2023-04-09T00:45:00;5.70;98.00
26575;DHT22;67165;50.256;10.978;2023-04-09T00:47:28;5.70;98.00
26575;DHT22;67165;50.256;10.978;2023-04-09T00:49:58;5.70;98.00
26575;DHT22;67165;50.256;10.978;2023-04-09T00:52:25;5.70;98.00
26575;DHT22;67165;50.256;10.978;2023-04-09T00:54:51;5.70;98.00
26575;DHT22;67165;50.256;10.978;2023-04-09T00:57:20;5.70;98.00
26575;DHT22;67165;50.256;10.978;2023-04-09T00:59:46;5.70;98.00
26575;DHT22;67165;50.256;10.978;2023-04-09T01:02:14;5.70;98.00
26575;DHT22;67165;50.256;10.978;2023-04-09T01:04:45;5.70;98.00
26575;DHT22;67165;50.256;10.978;2023-04-09T01:07:33;5.70;98.00
26575;DHT22;67165;50.256;10.978;2023-04-09T01:15:37;5.70;98.00
26575;DHT22;67165;50.256;10.978;2023-04-09T01:18:10;5.70;98.00
26575;DHT22;67165;50.256;10.978;2023-04-09T01:26:21;5.70;98.00
26575;DHT22;67165;50.256;10.978;2023-04-09T01:28:56;5.70;98.00
26575;DHT22;67165;50.256;10.978;2023-04-09T01:31:35;5.70;98.00
26575;DHT22;67165;50.256;10.978;2023-04-09T01:34:02;5.70;98.00
26575;DHT22;67165;50.256;10.978;2023-04-09T01:36:30;5.70;98.00
26575;DHT22;67165;50.256;10.978;2023-04-09T01:39:02;5.70;98.00
26575;DHT22;67165;50.256;10.978;2023-04-09T01:41:33;5.70;98.00
26575;DHT22;67165;50.256;10.978;2023-04-09T01:44:01;5.70;98.00
26575;DHT22;67165;50.256;10.978;2023-04-09T01:46:28;5.70;98.00
26575;DHT22;67165;50.256;10.978;2023-04-09T01:48:54;5.70;98.00
26575;DHT22;67165;50.256;10.978;2023-04-09T01:51:23;5.80;98.00
26575;DHT22;67165;50.256;10.978;2023-04-09T01:53:52;5.80;98.00
26575;DHT22;67165;50.256;10.978;2023-04-09T01:56:20;5.80;98.00
26575;DHT22;67165;50.256;10.978;2023-04-09T01:58:49;5.80;98.00
26575;DHT22;67165;50.256;10.978;2023-04-09T02:04:23;5.80;98.00
26575;DHT22;67165;50.256;10.978;2023-04-09T02:07:02;5.80;98.00
26575;DHT22;67165;50.256;10.978;2023-04-09T02:09:30;5.80;98.00
26575;DHT22;67165;50.256;10.978;2023-04-09T02:12:03;6.00;98.00
26575;DHT22;67165;50.256;10.978;2023-04-09T02:14:31;6.10;98.00
26575;DHT22;67165;50.256;10.978;2023-04-09T02:17:00;6.10;98.00
26575;DHT22;67165;50.256;10.978;2023-04-09T02:19:46;6.20;98.00
26575;DHT22;67165;50.256;10.978;2023-04-09T02:22:15;6.20;98.00
26575;DHT22;67165;50.256;10.978;2023-04-09T02:24:41;6.20;98.00
26575;DHT22;67165;50.256;10.978;2023-04-09T02:27:07;6.30;98.00
26575;DHT22;67165;50.256;10.978;2023-04-09T02:29:33;6.20;98.00
26575;DHT22;67165;50.256;10.978;2023-04-09T02:32:04;6.20;98.00
26575;DHT22;67165;50.256;10.978;2023-04-09T02:34:30;6.20;98.00
26575;DHT22;67165;50.256;10.978;2023-04-09T02:37:01;6.20;98.00
26575;DHT22;67165;50.256;10.978;2023-04-09T02:39:30;6.30;98.00
26575;DHT22;67165;50.256;10.978;2023-04-09T02:41:55;6.30;98.00
26575;DHT22;67165;50.256;10.978;2023-04-09T02:44:22;6.30;98.00
26575;DHT22;67165;50.256;10.978;2023-04-09T02:46:50;6.30;98.00
26575;DHT22;67165;50.256;10.978;2023-04-09T02:49:19;6.20;98.00
26575;DHT22;67165;50.256;10.978;2023-04-09T02:51:48;6.20;98.00
26575;DHT22;67165;50.256;10.978;2023-04-09T02:54:14;6.20;98.00
26575;DHT22;67165;50.256;10.978;2023-04-09T02:56:39;6.20;98.00
26575;DHT22;67165;50.256;10.978;2023-04-09T02:59:05;6.20;98.00
26575;DHT22;67165;50.256;10.978;2023-04-09T03:01:34;6.10;98.00
26575;DHT22;67165;50.256;10.978;2023-04-09T03:04:02;6.10;98.00
26575;DHT22;67165;50.256;10.978;2023-04-09T03:06:28;6.10;98.00
26575;DHT22;67165;50.256;10.978;2023-04-09T03:08:56;6.10;98.00
26575;DHT22;67165;50.256;10.978;2023-04-09T03:11:21;6.10;98.00
26575;DHT22;67165;50.256;10.978;2023-04-09T03:13:47;6.00;98.00
26575;DHT22;67165;50.256;10.978;2023-04-09T03:16:15;6.00;98.00
26575;DHT22;67165;50.256;10.978;2023-04-09T03:18:41;5.90;98.00
26575;DHT22;67165;50.256;10.978;2023-04-09T03:21:07;5.90;98.00
26575;DHT22;67165;50.256;10.978;2023-04-09T03:23:36;5.80;98.00
26575;DHT22;67165;50.256;10.978;2023-04-09T03:26:03;5.80;98.00
26575;DHT22;67165;50.256;10.978;2023-04-09T03:28:34;5.70;98.00
26575;DHT22;67165;50.256;10.978;2023-04-09T03:30:59;5.60;98.00
26575;DHT22;67165;50.256;10.978;2023-04-09T03:33:25;5.50;98.00
26575;DHT22;67165;50.256;10.978;2023-04-09T03:35:51;5.50;98.00
26575;DHT22;67165;50.256;10.978;2023-04-09T03:38:17;5.50;98.00
26575;DHT22;67165;50.256;10.978;2023-04-09T03:40:43;5.50;98.00
26575;DHT22;67165;50.256;10.978;2023-04-09T03:43:09;5.40;98.00
26575;DHT22;67165;50.256;10.978;2023-04-09T03:45:35;5.30;98.00
26575;DHT22;67165;50.256;10.978;2023-04-09T03:48:01;5.20;98.00
26575;DHT22;67165;50.256;10.978;2023-04-09T03:50:29;5.20;98.00
26575;DHT22;67165;50.256;10.978;2023-04-09T03:53:00;5.10;98.00
26575;DHT22;67165;50.256;10.978;2023-04-09T03:55:26;5.00;98.00
26575;DHT22;67165;50.256;10.978;2023-04-09T03:57:52;4.90;98.00
26575;DHT22;67165;50.256;10.978;2023-04-09T04:00:18;4.90;98.00
26575;DHT22;67165;50.256;10.978;2023-04-09T04:02:43;4.90;98.00
26575;DHT22;67165;50.256;10.978;2023-04-09T04:05:09;4.80;98.00
26575;DHT22;67165;50.256;10.978;2023-04-09T04:07:36;4.80;98.00
26575;DHT22;67165;50.256;10.978;2023-04-09T04:10:06;4.70;98.00
26575;DHT22;67165;50.256;10.978;2023-04-09T04:12:31;4.70;98.00
26575;DHT22;67165;50.256;10.978;2023-04-09T04:15:00;4.70;98.00
26575;DHT22;67165;50.256;10.978;2023-04-09T04:17:26;4.60;98.00
26575;DHT22;67165;50.256;10.978;2023-04-09T04:19:52;4.50;98.00
26575;DHT22;67165;50.256;10.978;2023-04-09T04:22:20;4.50;98.00
26575;DHT22;67165;50.256;10.978;2023-04-09T04:24:46;4.40;98.00
26575;DHT22;67165;50.256;10.978;2023-04-09T04:27:11;4.40;98.00
26575;DHT22;67165;50.256;10.978;2023-04-09T04:29:41;4.30;98.00
26575;DHT22;67165;50.256;10.978;2023-04-09T04:32:07;4.30;98.00
26575;DHT22;67165;50.256;10.978;2023-04-09T04:34:33;4.20;98.00
26575;DHT22;67165;50.256;10.978;2023-04-09T04:37:01;4.20;98.00
26575;DHT22;67165;50.256;10.978;2023-04-09T04:39:32;4.20;98.00
26575;DHT22;67165;50.256;10.978;2023-04-09T04:42:00;4.30;98.00
26575;DHT22;67165;50.256;10.978;2023-04-09T04:44:31;4.20;98.00
26575;DHT22;67165;50.256;10.978;2023-04-09T04:46:57;4.30;98.00
26575;DHT22;67165;50.256;10.978;2023-04-09T04:49:26;4.30;98.00
26575;DHT22;67165;50.256;10.978;2023-04-09T04:51:51;4.20;98.00
26575;DHT22;67165;50.256;10.978;2023-04-09T04:54:17;4.20;98.00
26575;DHT22;67165;50.256;10.978;2023-04-09T04:56:45;4.10;98.00
26575;DHT22;67165;50.256;10.978;2023-04-09T04:59:11;4.10;98.00
26575;DHT22;67165;50.256;10.978;2023-04-09T05:01:37;4.10;98.00
26575;DHT22;67165;50.256;10.978;2023-04-09T05:04:03;4.10;98.00
26575;DHT22;67165;50.256;10.978;2023-04-09T05:06:29;4.00;98.00
26575;DHT22;67165;50.256;10.978;2023-04-09T05:08:56;4.00;98.00
26575;DHT22;67165;50.256;10.978;2023-04-09T05:11:27;4.00;98.00
26575;DHT22;67165;50.256;10.978;2023-04-09T05:13:59;4.00;98.00
26575;DHT22;67165;50.256;10.978;2023-04-09T05:16:24;4.00;98.00
26575;DHT22;67165;50.256;10.978;2023-04-09T05:18:52;4.10;98.00
26575;DHT22;67165;50.256;10.978;2023-04-09T05:21:20;4.10;98.00
26575;DHT22;67165;50.256;10.978;2023-04-09T05:23:46;4.10;98.00
26575;DHT22;67165;50.256;10.978;2023-04-09T05:26:14;4.10;98.00
26575;DHT22;67165;50.256;10.978;2023-04-09T05:28:43;4.20;98.00
26575;DHT22;67165;50.256;10.978;2023-04-09T05:31:09;4.20;98.00
26575;DHT22;67165;50.256;10.978;2023-04-09T05:33:37;4.30;98.00
26575;DHT22;67165;50.256;10.978;2023-04-09T05:36:04;4.30;98.00
26575;DHT22;67165;50.256;10.978;2023-04-09T05:38:32;4.40;98.00
26575;DHT22;67165;50.256;10.978;2023-04-09T05:41:00;4.50;98.00
26575;DHT22;67165;50.256;10.978;2023-04-09T05:43:28;4.50;98.00
26575;DHT22;67165;50.256;10.978;2023-04-09T05:45:54;4.60;98.00
26575;DHT22;67165;50.256;10.978;2023-04-09T05:48:20;4.70;98.00
26575;DHT22;67165;50.256;10.978;2023-04-09T05:50:51;4.90;98.00
26575;DHT22;67165;50.256;10.978;2023-04-09T05:53:20;5.00;98.00
26575;DHT22;67165;50.256;10.978;2023-04-09T05:55:48;5.20;98.00
26575;DHT22;67165;50.256;10.978;2023-04-09T05:58:14;5.40;98.00
26575;DHT22;67165;50.256;10.978;2023-04-09T06:00:46;5.60;98.00
26575;DHT22;67165;50.256;10.978;2023-04-09T06:03:12;5.60;98.00
26575;DHT22;67165;50.256;10.978;2023-04-09T06:05:40;5.60;98.00
26575;DHT22;67165;50.256;10.978;2023-04-09T06:08:06;5.60;98.00
26575;DHT22;67165;50.256;10.978;2023-04-09T06:10:37;5.70;98.00
26575;DHT22;67165;50.256;10.978;2023-04-09T06:13:03;5.80;98.00
26575;DHT22;67165;50.256;10.978;2023-04-09T06:15:29;5.90;98.00
26575;DHT22;67165;50.256;10.978;2023-04-09T06:18:06;6.00;98.00
26575;DHT22;67165;50.256;10.978;2023-04-09T06:20:32;6.10;98.00
26575;DHT22;67165;50.256;10.978;2023-04-09T06:22:58;6.30;98.00
26575;DHT22;67165;50.256;10.978;2023-04-09T06:25:32;6.40;98.00
26575;DHT22;67165;50.256;10.978;2023-04-09T06:28:00;6.50;98.00
26575;DHT22;67165;50.256;10.978;2023-04-09T06:30:27;6.70;98.00
26575;DHT22;67165;50.256;10.978;2023-04-09T06:32:56;6.90;98.00
26575;DHT22;67165;50.256;10.978;2023-04-09T06:35:32;6.90;98.00
26575;DHT22;67165;50.256;10.978;2023-04-09T06:38:05;6.90;98.00
26575;DHT22;67165;50.256;10.978;2023-04-09T06:40:37;7.00;98.00
26575;DHT22;67165;50.256;10.978;2023-04-09T06:43:03;7.10;98.00
26575;DHT22;67165;50.256;10.978;2023-04-09T06:45:32;7.20;98.00
26575;DHT22;67165;50.256;10.978;2023-04-09T06:48:02;7.30;98.00
26575;DHT22;67165;50.256;10.978;2023-04-09T06:50:34;7.40;98.00
26575;DHT22;67165;50.256;10.978;2023-04-09T06:53:02;7.50;98.00
26575;DHT22;67165;50.256;10.978;2023-04-09T06:55:46;7.60;98.00
26575;DHT22;67165;50.256;10.978;2023-04-09T06:58:11;7.60;98.00
26575;DHT22;67165;50.256;10.978;2023-04-09T07:00:37;7.70;98.00
26575;DHT22;67165;50.256;10.978;2023-04-09T07:03:29;7.60;98.00
26575;DHT22;67165;50.256;10.978;2023-04-09T07:06:23;7.60;98.00
26575;DHT22;67165;50.256;10.978;2023-04-09T07:09:04;7.80;98.00
26575;DHT22;67165;50.256;10.978;2023-04-09T07:11:38;7.80;98.00
26575;DHT22;67165;50.256;10.978;2023-04-09T07:14:22;7.80;98.00
26575;DHT22;67165;50.256;10.978;2023-04-09T07:17:22;7.90;98.00
26575;DHT22;67165;50.256;10.978;2023-04-09T07:20:13;8.00;98.00
26575;DHT22;67165;50.256;10.978;2023-04-09T07:22:47;8.00;98.00
26575;DHT22;67165;50.256;10.978;2023-04-09T07:25:16;8.10;98.00
26575;DHT22;67165;50.256;10.978;2023-04-09T07:27:55;8.10;98.00
26575;DHT22;67165;50.256;10.978;2023-04-09T07:30:41;8.20;98.00
26575;DHT22;67165;50.256;10.978;2023-04-09T07:33:31;8.30;98.00
26575;DHT22;67165;50.256;10.978;2023-04-09T07:36:01;8.40;98.00
26575;DHT22;67165;50.256;10.978;2023-04-09T07:38:46;8.50;98.00
26575;DHT22;67165;50.256;10.978;2023-04-09T07:41:22;8.50;98.00
26575;DHT22;67165;50.256;10.978;2023-04-09T07:43:53;8.70;98.00
26575;DHT22;67165;50.256;10.978;2023-04-09T07:46:26;8.80;98.00
26575;DHT22;67165;50.256;10.978;2023-04-09T07:48:56;8.80;98.00
26575;DHT22;67165;50.256;10.978;2023-04-09T07:51:23;8.80;98.00
26575;DHT22;67165;50.256;10.978;2023-04-09T07:53:51;9.00;98.00
26575;DHT22;67165;50.256;10.978;2023-04-09T07:56:26;9.20;98.00
26575;DHT22;67165;50.256;10.978;2023-04-09T07:58:55;9.40;98.00
26575;DHT22;67165;50.256;10.978;2023-04-09T08:01:26;9.40;98.00
26575;DHT22;67165;50.256;10.978;2023-04-09T08:03:55;9.30;98.00
26575;DHT22;67165;50.256;10.978;2023-04-09T08:06:26;9.30;98.00
26575;DHT22;67165;50.256;10.978;2023-04-09T08:08:54;9.60;98.00
26575;DHT22;67165;50.256;10.978;2023-04-09T08:11:20;9.70;98.00
26575;DHT22;67165;50.256;10.978;2023-04-09T08:13:51;9.70;98.00
26575;DHT22;67165;50.256;10.978;2023-04-09T08:16:20;9.80;98.00
26575;DHT22;67165;50.256;10.978;2023-04-09T08:18:49;9.80;98.00
26575;DHT22;67165;50.256;10.978;2023-04-09T08:21:15;9.90;98.00
26575;DHT22;67165;50.256;10.978;2023-04-09T08:23:41;9.90;98.00
26575;DHT22;67165;50.256;10.978;2023-04-09T08:26:09;9.90;98.00
26575;DHT22;67165;50.256;10.978;2023-04-09T08:28:40;10.10;98.00
26575;DHT22;67165;50.256;10.978;2023-04-09T08:31:08;10.10;98.00
26575;DHT22;67165;50.256;10.978;2023-04-09T08:33:36;10.10;98.00
26575;DHT22;67165;50.256;10.978;2023-04-09T08:36:06;10.00;98.00
26575;DHT22;67165;50.256;10.978;2023-04-09T08:38:36;10.00;98.00
26575;DHT22;67165;50.256;10.978;2023-04-09T08:41:07;10.10;98.00
26575;DHT22;67165;50.256;10.978;2023-04-09T08:43:41;10.30;98.00
26575;DHT22;67165;50.256;10.978;2023-04-09T08:46:09;10.50;98.00
26575;DHT22;67165;50.256;10.978;2023-04-09T08:48:38;10.50;98.00
26575;DHT22;67165;50.256;10.978;2023-04-09T08:51:12;10.50;98.00
26575;DHT22;67165;50.256;10.978;2023-04-09T08:53:51;10.40;98.00
26575;DHT22;67165;50.256;10.978;2023-04-09T08:56:19;10.50;98.00
26575;DHT22;67165;50.256;10.978;2023-04-09T08:58:46;10.80;98.00
26575;DHT22;67165;50.256;10.978;2023-04-09T09:01:19;10.80;98.00
26575;DHT22;67165;50.256;10.978;2023-04-09T09:04:11;10.90;98.00
26575;DHT22;67165;50.256;10.978;2023-04-09T09:06:39;10.70;98.00
26575;DHT22;67165;50.256;10.978;2023-04-09T09:09:08;10.80;98.00
26575;DHT22;67165;50.256;10.978;2023-04-09T09:11:36;10.80;98.00
26575;DHT22;67165;50.256;10.978;2023-04-09T09:16:32;10.80;98.00
26575;DHT22;67165;50.256;10.978;2023-04-09T09:19:00;10.80;98.00
26575;DHT22;67165;50.256;10.978;2023-04-09T09:21:28;10.90;98.00
26575;DHT22;67165;50.256;10.978;2023-04-09T09:24:00;11.00;98.00
26575;DHT22;67165;50.256;10.978;2023-04-09T09:26:30;11.00;98.00
26575;DHT22;67165;50.256;10.978;2023-04-09T09:28:59;10.90;98.00
26575;DHT22;67165;50.256;10.978;2023-04-09T09:31:28;10.80;98.00
26575;DHT22;67165;50.256;10.978;2023-04-09T09:33:54;10.90;98.00
26575;DHT22;67165;50.256;10.978;2023-04-09T09:36:35;10.90;98.00
26575;DHT22;67165;50.256;10.978;2023-04-09T09:39:01;11.10;98.00
26575;DHT22;67165;50.256;10.978;2023-04-09T09:41:35;11.20;98.00
26575;DHT22;67165;50.256;10.978;2023-04-09T09:44:03;11.20;98.00
26575;DHT22;67165;50.256;10.978;2023-04-09T09:46:40;11.20;98.00
26575;DHT22;67165;50.256;10.978;2023-04-09T09:49:07;11.30;98.00
26575;DHT22;67165;50.256;10.978;2023-04-09T09:51:38;11.30;98.00
26575;DHT22;67165;50.256;10.978;2023-04-09T09:54:06;11.40;98.00
26575;DHT22;67165;50.256;10.978;2023-04-09T09:56:38;11.40;98.00
26575;DHT22;67165;50.256;10.978;2023-04-09T09:59:14;11.20;98.00
26575;DHT22;67165;50.256;10.978;2023-04-09T10:01:42;11.20;98.00
26575;DHT22;67165;50.256;10.978;2023-04-09T10:04:14;11.20;98.00
26575;DHT22;67165;50.256;10.978;2023-04-09T10:06:43;10.90;98.00
26575;DHT22;67165;50.256;10.978;2023-04-09T10:09:10;10.90;98.00
26575;DHT22;67165;50.256;10.978;2023-04-09T10:11:45;11.00;98.00
26575;DHT22;67165;50.256;10.978;2023-04-09T10:14:16;11.30;98.00
26575;DHT22;67165;50.256;10.978;2023-04-09T10:16:45;11.40;98.00
26575;DHT22;67165;50.256;10.978;2023-04-09T10:19:11;11.40;98.00
26575;DHT22;67165;50.256;10.978;2023-04-09T10:21:50;11.40;98.00
26575;DHT22;67165;50.256;10.978;2023-04-09T10:24:18;11.60;98.00
26575;DHT22;67165;50.256;10.978;2023-04-09T10:26:47;11.60;98.00
26575;DHT22;67165;50.256;10.978;2023-04-09T10:29:14;11.60;98.00
26575;DHT22;67165;50.256;10.978;2023-04-09T10:34:23;11.70;98.00
26575;DHT22;67165;50.256;10.978;2023-04-09T10:36:55;11.90;98.00
26575;DHT22;67165;50.256;10.978;2023-04-09T10:39:26;12.10;98.00
26575;DHT22;67165;50.256;10.978;2023-04-09T10:41:53;12.20;98.00
26575;DHT22;67165;50.256;10.978;2023-04-09T10:44:24;12.20;98.00
26575;DHT22;67165;50.256;10.978;2023-04-09T10:46:57;12.40;98.00
26575;DHT22;67165;50.256;10.978;2023-04-09T10:49:26;12.50;98.00
26575;DHT22;67165;50.256;10.978;2023-04-09T10:59:42;12.60;98.00
26575;DHT22;67165;50.256;10.978;2023-04-09T11:08:12;12.60;96.70
26575;DHT22;67165;50.256;10.978;2023-04-09T11:10:42;12.70;97.70
26575;DHT22;67165;50.256;10.978;2023-04-09T11:13:16;12.80;97.80
26575;DHT22;67165;50.256;10.978;2023-04-09T11:15:44;12.80;95.90
26575;DHT22;67165;50.256;10.978;2023-04-09T11:18:29;12.80;95.70
26575;DHT22;67165;50.256;10.978;2023-04-09T11:20:56;12.80;95.40
26575;DHT22;67165;50.256;10.978;2023-04-09T11:23:23;12.90;95.00
26575;DHT22;67165;50.256;10.978;2023-04-09T11:25:55;13.10;95.20
26575;DHT22;67165;50.256;10.978;2023-04-09T11:28:23;13.10;94.60
26575;DHT22;67165;50.256;10.978;2023-04-09T11:30:50;13.20;95.60
26575;DHT22;67165;50.256;10.978;2023-04-09T11:33:16;13.10;96.20
26575;DHT22;67165;50.256;10.978;2023-04-09T11:35:44;13.10;95.80
26575;DHT22;67165;50.256;10.978;2023-04-09T11:38:11;13.20;95.80
26575;DHT22;67165;50.256;10.978;2023-04-09T11:40:40;13.20;97.50
26575;DHT22;67165;50.256;10.978;2023-04-09T11:43:18;13.20;96.90
26575;DHT22;67165;50.256;10.978;2023-04-09T11:45:49;13.30;96.30
26575;DHT22;67165;50.256;10.978;2023-04-09T11:48:16;13.30;96.70
26575;DHT22;67165;50.256;10.978;2023-04-09T11:50:55;13.50;96.90
26575;DHT22;67165;50.256;10.978;2023-04-09T11:53:27;13.60;96.20
26575;DHT22;67165;50.256;10.978;2023-04-09T11:55:56;13.80;97.00
26575;DHT22;67165;50.256;10.978;2023-04-09T11:58:24;13.90;94.60
26575;DHT22;67165;50.256;10.978;2023-04-09T12:00:54;13.90;94.50
26575;DHT22;67165;50.256;10.978;2023-04-09T12:03:40;13.70;95.60
26575;DHT22;67165;50.256;10.978;2023-04-09T12:06:11;13.70;95.60
26575;DHT22;67165;50.256;10.978;2023-04-09T12:08:38;13.60;93.70
26575;DHT22;67165;50.256;10.978;2023-04-09T12:11:11;13.30;93.10
26575;DHT22;67165;50.256;10.978;2023-04-09T12:13:38;13.10;95.20
26575;DHT22;67165;50.256;10.978;2023-04-09T12:16:12;12.90;94.40
26575;DHT22;67165;50.256;10.978;2023-04-09T12:18:39;13.00;95.80
26575;DHT22;67165;50.256;10.978;2023-04-09T12:21:05;13.10;94.90
26575;DHT22;67165;50.256;10.978;2023-04-09T12:23:31;13.00;94.10
26575;DHT22;67165;50.256;10.978;2023-04-09T12:25:58;13.50;94.20
26575;DHT22;67165;50.256;10.978;2023-04-09T12:28:27;13.80;94.60
26575;DHT22;67165;50.256;10.978;2023-04-09T12:30:53;13.90;93.50
26575;DHT22;67165;50.256;10.978;2023-04-09T12:33:22;14.00;92.50
26575;DHT22;67165;50.256;10.978;2023-04-09T12:35:48;13.90;94.30
26575;DHT22;67165;50.256;10.978;2023-04-09T12:38:17;13.90;94.20
26575;DHT22;67165;50.256;10.978;2023-04-09T12:40:43;13.70;92.60
26575;DHT22;67165;50.256;10.978;2023-04-09T12:43:11;13.70;93.00
26575;DHT22;67165;50.256;10.978;2023-04-09T12:45:39;13.90;91.20
26575;DHT22;67165;50.256;10.978;2023-04-09T12:48:07;13.90;91.60
26575;DHT22;67165;50.256;10.978;2023-04-09T12:50:33;14.00;91.70
26575;DHT22;67165;50.256;10.978;2023-04-09T12:52:59;14.10;92.20
26575;DHT22;67165;50.256;10.978;2023-04-09T12:55:27;14.30;92.90
26575;DHT22;67165;50.256;10.978;2023-04-09T12:57:53;14.70;92.60
26575;DHT22;67165;50.256;10.978;2023-04-09T13:00:19;14.90;92.50
26575;DHT22;67165;50.256;10.978;2023-04-09T13:02:48;15.00;90.50
26575;DHT22;67165;50.256;10.978;2023-04-09T13:05:15;15.20;90.00
26575;DHT22;67165;50.256;10.978;2023-04-09T13:07:41;15.30;90.80
26575;DHT22;67165;50.256;10.978;2023-04-09T13:10:10;15.30;89.10
26575;DHT22;67165;50.256;10.978;2023-04-09T13:12:36;15.40;90.40
26575;DHT22;67165;50.256;10.978;2023-04-09T13:15:02;15.40;89.90
26575;DHT22;67165;50.256;10.978;2023-04-09T13:17:27;15.40;89.80
26575;DHT22;67165;50.256;10.978;2023-04-09T13:19:53;15.10;88.40
26575;DHT22;67165;50.256;10.978;2023-04-09T13:22:19;15.20;89.70
26575;DHT22;67165;50.256;10.978;2023-04-09T13:24:44;15.20;87.80
26575;DHT22;67165;50.256;10.978;2023-04-09T13:27:10;14.90;88.50
26575;DHT22;67165;50.256;10.978;2023-04-09T13:29:36;14.70;88.80
26575;DHT22;67165;50.256;10.978;2023-04-09T13:32:02;14.40;89.50
26575;DHT22;67165;50.256;10.978;2023-04-09T13:34:32;14.50;91.50
26575;DHT22;67165;50.256;10.978;2023-04-09T13:36:59;14.50;91.40
26575;DHT22;67165;50.256;10.978;2023-04-09T13:39:25;14.40;89.70
26575;DHT22;67165;50.256;10.978;2023-04-09T13:41:51;14.50;89.80
26575;DHT22;67165;50.256;10.978;2023-04-09T13:44:16;14.50;89.40
26575;DHT22;67165;50.256;10.978;2023-04-09T13:46:42;14.40;90.20
26575;DHT22;67165;50.256;10.978;2023-04-09T13:49:08;14.60;91.20
26575;DHT22;67165;50.256;10.978;2023-04-09T13:51:34;14.60;89.70
26575;DHT22;67165;50.256;10.978;2023-04-09T13:54:01;14.70;89.00
26575;DHT22;67165;50.256;10.978;2023-04-09T13:56:28;14.40;88.50
26575;DHT22;67165;50.256;10.978;2023-04-09T13:58:56;14.30;89.50
26575;DHT22;67165;50.256;10.978;2023-04-09T14:01:22;14.40;88.90
26575;DHT22;67165;50.256;10.978;2023-04-09T14:03:56;14.30;88.40
26575;DHT22;67165;50.256;10.978;2023-04-09T14:06:22;14.20;88.00
26575;DHT22;67165;50.256;10.978;2023-04-09T14:08:48;14.10;88.20
26575;DHT22;67165;50.256;10.978;2023-04-09T14:11:14;14.00;89.40
26575;DHT22;67165;50.256;10.978;2023-04-09T14:13:44;13.90;90.60
26575;DHT22;67165;50.256;10.978;2023-04-09T14:16:12;13.90;91.20
26575;DHT22;67165;50.256;10.978;2023-04-09T14:18:38;13.90;91.00
26575;DHT22;67165;50.256;10.978;2023-04-09T14:21:05;13.80;91.30
26575;DHT22;67165;50.256;10.978;2023-04-09T14:23:31;13.60;92.20
26575;DHT22;67165;50.256;10.978;2023-04-09T14:25:57;13.60;91.80
26575;DHT22;67165;50.256;10.978;2023-04-09T14:28:28;13.60;91.50
26575;DHT22;67165;50.256;10.978;2023-04-09T14:30:57;13.60;92.00
26575;DHT22;67165;50.256;10.978;2023-04-09T14:33:26;13.50;92.40
26575;DHT22;67165;50.256;10.978;2023-04-09T14:35:52;13.40;92.00
26575;DHT22;67165;50.256;10.978;2023-04-09T14:38:18;13.30;93.40
26575;DHT22;67165;50.256;10.978;2023-04-09T14:40:43;13.20;93.80
26575;DHT22;67165;50.256;10.978;2023-04-09T14:43:11;13.20;93.80
26575;DHT22;67165;50.256;10.978;2023-04-09T14:45:37;13.20;93.70
26575;DHT22;67165;50.256;10.978;2023-04-09T14:48:03;13.20;94.70
26575;DHT22;67165;50.256;10.978;2023-04-09T14:50:30;13.20;93.90
26575;DHT22;67165;50.256;10.978;2023-04-09T14:52:56;13.10;93.70
26575;DHT22;67165;50.256;10.978;2023-04-09T14:55:22;13.10;93.90
26575;DHT22;67165;50.256;10.978;2023-04-09T14:57:49;13.00;93.90
26575;DHT22;67165;50.256;10.978;2023-04-09T15:00:15;13.10;94.10
26575;DHT22;67165;50.256;10.978;2023-04-09T15:02:41;13.10;94.00
26575;DHT22;67165;50.256;10.978;2023-04-09T15:05:10;13.20;94.40
26575;DHT22;67165;50.256;10.978;2023-04-09T15:07:36;13.30;94.00
26575;DHT22;67165;50.256;10.978;2023-04-09T15:10:02;13.50;93.20
26575;DHT22;67165;50.256;10.978;2023-04-09T15:12:31;13.60;92.90
26575;DHT22;67165;50.256;10.978;2023-04-09T15:14:57;13.90;93.90
26575;DHT22;67165;50.256;10.978;2023-04-09T15:17:23;14.20;92.50
26575;DHT22;67165;50.256;10.978;2023-04-09T15:19:50;14.20;90.90
26575;DHT22;67165;50.256;10.978;2023-04-09T15:22:16;14.20;90.20
26575;DHT22;67165;50.256;10.978;2023-04-09T15:24:42;14.30;90.60
26575;DHT22;67165;50.256;10.978;2023-04-09T15:27:07;14.40;91.60
26575;DHT22;67165;50.256;10.978;2023-04-09T15:29:33;14.40;91.50
26575;DHT22;67165;50.256;10.978;2023-04-09T15:31:59;14.50;90.90
26575;DHT22;67165;50.256;10.978;2023-04-09T15:34:25;14.40;91.10
26575;DHT22;67165;50.256;10.978;2023-04-09T15:36:51;14.40;91.80
26575;DHT22;67165;50.256;10.978;2023-04-09T15:39:17;14.40;90.60
26575;DHT22;67165;50.256;10.978;2023-04-09T15:41:44;14.30;92.10
26575;DHT22;67165;50.256;10.978;2023-04-09T15:44:10;14.40;92.10
26575;DHT22;67165;50.256;10.978;2023-04-09T15:46:39;14.40;91.50
26575;DHT22;67165;50.256;10.978;2023-04-09T15:49:05;14.20;89.90
26575;DHT22;67165;50.256;10.978;2023-04-09T15:51:30;14.20;90.00
26575;DHT22;67165;50.256;10.978;2023-04-09T15:53:59;14.30;89.10
26575;DHT22;67165;50.256;10.978;2023-04-09T15:56:31;14.30;89.20
26575;DHT22;67165;50.256;10.978;2023-04-09T15:58:59;14.50;89.70
26575;DHT22;67165;50.256;10.978;2023-04-09T16:01:26;14.70;89.40
26575;DHT22;67165;50.256;10.978;2023-04-09T16:03:52;14.90;89.40
26575;DHT22;67165;50.256;10.978;2023-04-09T16:06:18;14.90;88.80
26575;DHT22;67165;50.256;10.978;2023-04-09T16:08:50;14.80;88.60